createdAt,value
2022-08-11T00:02:01.948Z,76.69
2022-08-11T00:04:39.469Z,76.87
2022-08-11T00:07:10.144Z,76.71
2022-08-11T00:09:40.132Z,76.44
2022-08-11T00:12:17.299Z,77.02
2022-08-11T00:14:55.350Z,77.13
2022-08-11T00:17:28.416Z,77.18
2022-08-11T00:20:16.983Z,76.82
2022-08-11T00:22:47.931Z,76.82
2022-08-11T00:25:19.700Z,76.96
2022-08-11T00:27:49.252Z,76.87
2022-08-11T00:30:18.139Z,76.50
2022-08-11T00:32:59.147Z,76.68
2022-08-11T00:35:55.938Z,76.65
2022-08-11T00:38:26.007Z,76.99
2022-08-11T00:41:18.570Z,77.02
2022-08-11T00:44:02.622Z,77.35
2022-08-11T00:47:03.840Z,77.33
2022-08-11T00:49:40.156Z,77.35
2022-08-11T00:52:14.789Z,77.69
2022-08-11T00:55:03.634Z,78.10
2022-08-11T00:58:02.894Z,78.48
2022-08-11T01:00:58.118Z,79.05
2022-08-11T01:03:29.531Z,79.35
2022-08-11T01:06:05.386Z,79.46
2022-08-11T01:09:07.118Z,79.55
2022-08-11T01:11:55.840Z,79.73
2022-08-11T01:14:56.059Z,79.90
2022-08-11T01:17:27.348Z,80.11
2022-08-11T01:20:48.695Z,80.21
2022-08-11T01:23:41.638Z,80.07
2022-08-11T01:26:19.131Z,80.01
2022-08-11T01:29:10.589Z,79.60
2022-08-11T01:32:00.949Z,79.90
2022-08-11T01:35:18.919Z,79.45
2022-08-11T01:38:18.403Z,79.25
2022-08-11T01:41:14.666Z,79.14
2022-08-11T01:44:26.992Z,79.50
2022-08-11T01:47:33.588Z,79.81
2022-08-11T01:50:31.578Z,79.77
2022-08-11T01:53:22.426Z,79.97
2022-08-11T01:56:13.952Z,80.12
2022-08-11T01:59:00.304Z,80.22
2022-08-11T02:01:53.903Z,80.31
2022-08-11T02:04:59.160Z,80.60
2022-08-11T02:07:53.609Z,80.91
2022-08-11T02:11:04.584Z,81.04
2022-08-11T02:13:41.520Z,81.39
2022-08-11T02:16:15.895Z,81.37
2022-08-11T02:19:28.570Z,81.07
2022-08-11T02:22:42.534Z,81.44
2022-08-11T02:25:41.414Z,81.65
2022-08-11T02:28:29.507Z,81.83
2022-08-11T02:32:28.509Z,81.88
2022-08-11T02:34:59.973Z,81.92
2022-08-11T02:37:32.147Z,82.07
2022-08-11T02:40:10.946Z,82.35
2022-08-11T02:42:45.628Z,82.55
2022-08-11T02:45:29.538Z,82.70
2022-08-11T02:48:25.691Z,82.91
2022-08-11T02:51:24.969Z,82.81
2022-08-11T02:54:26.646Z,82.50
2022-08-11T02:57:05.925Z,82.25
2022-08-11T03:00:10.663Z,82.03
2022-08-11T03:02:41.382Z,82.14
2022-08-11T03:05:14.071Z,82.25
2022-08-11T03:08:15.527Z,82.31
2022-08-11T03:11:21.056Z,82.11
2022-08-11T03:14:21.912Z,82.39
2022-08-11T03:16:50.114Z,82.44
2022-08-11T03:19:27.417Z,82.56
2022-08-11T03:22:34.470Z,82.68
2022-08-11T03:25:31.833Z,82.73
2022-08-11T03:28:22.221Z,82.83
2022-08-11T03:31:07.373Z,82.96
2022-08-11T03:34:06.710Z,83.16
2022-08-11T03:37:33.728Z,83.21
2022-08-11T03:40:38.917Z,83.43
2022-08-11T03:43:19.224Z,83.41
2022-08-11T03:46:03.146Z,83.27
2022-08-11T03:48:57.499Z,83.64
2022-08-11T03:51:44.808Z,83.70
2022-08-11T03:54:59.499Z,83.62
2022-08-11T03:57:50.518Z,83.43
2022-08-11T04:00:56.251Z,83.39
2022-08-11T04:04:35.832Z,83.20
2022-08-11T04:07:23.637Z,82.84
2022-08-11T04:10:29.002Z,82.82
2022-08-11T04:13:22.416Z,82.51
2022-08-11T04:16:25.111Z,82.32
2022-08-11T04:19:28.476Z,82.08
2022-08-11T04:22:06.630Z,81.74
2022-08-11T04:24:56.647Z,81.48
2022-08-11T04:27:41.823Z,81.14
2022-08-11T04:30:20.651Z,80.72
2022-08-11T04:33:26.800Z,80.13
2022-08-11T04:36:09.938Z,79.74
2022-08-11T04:39:03.413Z,79.53
2022-08-11T04:42:12.498Z,79.06
2022-08-11T04:44:43.594Z,78.95
2022-08-11T04:48:01.932Z,78.58
2022-08-11T04:51:16.460Z,77.59
2022-08-11T04:54:28.447Z,76.58
2022-08-11T04:57:25.467Z,75.63
2022-08-11T05:00:22.682Z,74.87
2022-08-11T05:03:09.554Z,74.50
2022-08-11T05:06:02.994Z,74.36
2022-08-11T05:09:18.820Z,74.42
2022-08-11T05:12:24.025Z,74.25
2022-08-11T05:15:12.625Z,73.78
2022-08-11T05:18:16.577Z,73.34
2022-08-11T05:21:11.923Z,72.57
2022-08-11T05:24:08.014Z,71.90
2022-08-11T05:27:12.848Z,71.06
2022-08-11T05:30:15.690Z,69.73
2022-08-11T05:33:05.493Z,69.31
2022-08-11T05:36:09.071Z,68.60
2022-08-11T05:38:56.986Z,68.25
2022-08-11T05:41:48.046Z,67.90
2022-08-11T05:44:39.926Z,66.46
2022-08-11T05:47:27.887Z,66.32
2022-08-11T05:50:15.696Z,65.63
2022-08-11T05:53:09.242Z,64.23
2022-08-11T05:56:03.701Z,63.96
2022-08-11T05:58:38.198Z,63.60
2022-08-11T06:01:32.037Z,62.47
2022-08-11T06:04:15.109Z,59.54
2022-08-11T06:07:06.566Z,59.83
2022-08-11T06:09:49.915Z,58.45
2022-08-11T06:12:24.296Z,57.59
2022-08-11T06:14:57.461Z,58.62
2022-08-11T06:17:38.946Z,58.97
2022-08-11T06:20:13.369Z,57.37
2022-08-11T06:23:05.824Z,57.07
2022-08-11T06:25:36.588Z,55.45
2022-08-11T06:28:07.289Z,55.55
2022-08-11T06:30:40.636Z,53.74
2022-08-11T06:33:12.718Z,53.68
2022-08-11T06:36:05.859Z,52.26
2022-08-11T06:38:41.970Z,52.39
2022-08-11T06:41:30.751Z,52.54
2022-08-11T06:44:11.130Z,52.62
2022-08-11T06:47:08.025Z,52.90
2022-08-11T06:50:02.119Z,51.51
2022-08-11T06:52:36.870Z,52.25
2022-08-11T06:55:56.548Z,53.26
2022-08-11T06:58:51.287Z,53.36
2022-08-11T07:01:35.844Z,53.53
2022-08-11T07:04:10.672Z,53.02
2022-08-11T07:07:37.145Z,52.58
2022-08-11T07:11:05.976Z,52.75
2022-08-11T07:13:57.248Z,52.86
2022-08-11T07:16:35.639Z,51.79
2022-08-11T07:19:26.471Z,51.02
2022-08-11T07:22:16.221Z,49.64
2022-08-11T07:25:12.188Z,49.12
2022-08-11T07:28:11.168Z,48.23
2022-08-11T07:30:41.876Z,46.46
2022-08-11T07:33:13.442Z,46.13
2022-08-11T07:36:04.964Z,44.54
2022-08-11T07:38:47.515Z,44.93
2022-08-11T07:41:19.850Z,44.01
2022-08-11T07:43:53.040Z,42.95
2022-08-11T07:46:41.934Z,42.90
2022-08-11T07:49:30.460Z,42.86
2022-08-11T07:52:17.967Z,40.76
2022-08-11T07:54:51.336Z,41.26
2022-08-11T07:58:13.833Z,40.84
2022-08-11T08:00:51.625Z,40.32
2022-08-11T08:03:39.567Z,40.46
2022-08-11T08:06:42.962Z,39.84
2022-08-11T08:09:30.748Z,38.50
2022-08-11T08:12:21.109Z,38.47
2022-08-11T08:15:10.587Z,37.84
2022-08-11T08:18:25.413Z,37.55
2022-08-11T08:20:50.446Z,36.11
2022-08-11T08:23:34.602Z,36.45
2022-08-11T08:26:27.832Z,35.02
2022-08-11T08:29:18.580Z,35.36
2022-08-11T08:31:48.880Z,35.93
2022-08-11T08:34:19.161Z,34.86
2022-08-11T08:36:49.942Z,33.93
2022-08-11T08:39:22.621Z,34.06
2022-08-11T08:41:56.502Z,34.99
2022-08-11T08:44:45.028Z,35.62
2022-08-11T08:47:42.346Z,33.80
2022-08-11T08:50:16.346Z,34.98
2022-08-11T08:53:07.036Z,34.90
2022-08-11T08:55:35.487Z,34.74
2022-08-11T08:58:04.333Z,33.52
2022-08-11T09:00:46.175Z,33.29
2022-08-11T09:03:40.663Z,32.26
2022-08-11T09:06:03.632Z,32.15
2022-08-11T09:08:34.126Z,31.43
2022-08-11T09:11:23.943Z,30.70
2022-08-11T09:14:05.017Z,31.58
2022-08-11T09:16:37.377Z,31.02
2022-08-11T09:19:08.420Z,31.86
2022-08-11T09:21:48.269Z,33.22
2022-08-11T09:24:38.237Z,33.13
2022-08-11T09:27:08.639Z,32.94
2022-08-11T09:29:39.212Z,32.11
2022-08-11T09:32:08.665Z,32.09
2022-08-11T09:34:39.276Z,32.98
2022-08-11T09:37:54.806Z,33.34
2022-08-11T09:40:29.412Z,34.38
2022-08-11T09:43:18.733Z,34.15
2022-08-11T09:45:52.235Z,33.93
2022-08-11T09:48:24.342Z,32.51
2022-08-11T09:50:56.025Z,33.26
2022-08-11T09:53:41.064Z,33.56
2022-08-11T09:56:33.756Z,33.61
2022-08-11T09:59:04.775Z,34.01
2022-08-11T10:02:18.687Z,34.27
2022-08-11T10:04:48.736Z,34.63
2022-08-11T10:07:20.545Z,35.04
2022-08-11T10:10:05.976Z,35.79
2022-08-11T10:12:37.452Z,35.33
2022-08-11T10:15:28.614Z,36.82
2022-08-11T10:18:25.974Z,36.84
2022-08-11T10:21:03.685Z,34.88
2022-08-11T10:24:01.287Z,36.04
2022-08-11T10:26:53.986Z,35.85
2022-08-11T10:29:55.186Z,36.50
2022-08-11T10:32:58.832Z,36.30
2022-08-11T10:35:32.322Z,35.79
2022-08-11T10:38:05.885Z,35.25
2022-08-11T10:40:39.865Z,35.09
2022-08-11T10:43:57.206Z,35.15
2022-08-11T10:46:29.717Z,31.02
2022-08-11T10:49:00.526Z,31.99
2022-08-11T10:51:51.212Z,31.38
2022-08-11T10:54:41.806Z,30.42
2022-08-11T10:57:30.867Z,30.03
2022-08-11T11:00:00.057Z,29.02
2022-08-11T11:02:29.398Z,28.70
2022-08-11T11:05:10.342Z,29.87
2022-08-11T11:08:00.553Z,28.83
2022-08-11T11:10:29.213Z,28.72
2022-08-11T11:13:18.177Z,28.64
2022-08-11T11:16:06.846Z,27.28
2022-08-11T11:18:37.269Z,28.32
2022-08-11T11:21:08.329Z,28.96
2022-08-11T11:24:05.264Z,28.26
2022-08-11T11:27:00.951Z,26.19
2022-08-11T11:29:51.001Z,25.61
2022-08-11T11:32:53.319Z,25.50
2022-08-11T11:35:44.956Z,26.02
2022-08-11T11:38:14.356Z,26.73
2022-08-11T11:40:43.511Z,25.61
2022-08-11T11:43:12.533Z,25.20
2022-08-11T11:45:42.504Z,27.28
2022-08-11T11:48:12.497Z,27.79
2022-08-11T11:50:41.461Z,28.17
2022-08-11T11:53:12.711Z,27.12
2022-08-11T11:55:42.235Z,27.12
2022-08-11T11:58:29.596Z,26.48
2022-08-11T12:01:20.328Z,25.75
2022-08-11T12:03:52.109Z,24.82
2022-08-11T12:06:23.479Z,26.96
2022-08-11T12:08:55.782Z,27.02
2022-08-11T12:11:45.512Z,26.80
2022-08-11T12:14:20.494Z,25.09
2022-08-11T12:16:49.864Z,25.89
2022-08-11T12:19:23.154Z,25.37
2022-08-11T12:22:14.082Z,27.28
2022-08-11T12:25:02.128Z,26.63
2022-08-11T12:27:31.711Z,27.96
2022-08-11T12:30:11.511Z,28.26
2022-08-11T12:32:42.052Z,28.92
2022-08-11T12:35:11.687Z,29.18
2022-08-11T12:37:45.779Z,29.53
2022-08-11T12:41:11.763Z,30.47
2022-08-11T12:43:56.926Z,30.21
2022-08-11T12:46:32.165Z,30.93
2022-08-11T12:49:29.280Z,32.29
2022-08-11T12:52:14.924Z,31.25
2022-08-11T12:55:00.228Z,31.97
2022-08-11T12:57:55.859Z,30.36
2022-08-11T13:00:44.637Z,28.46
2022-08-11T13:03:33.554Z,28.33
2022-08-11T13:06:04.167Z,28.03
2022-08-11T13:08:37.198Z,28.67
2022-08-11T13:11:55.891Z,29.17
2022-08-11T13:14:16.513Z,28.57
2022-08-11T13:17:05.889Z,27.74
2022-08-11T13:19:35.480Z,28.02
2022-08-11T13:22:07.625Z,28.46
2022-08-11T13:24:37.109Z,28.69
2022-08-11T13:27:06.921Z,28.61
2022-08-11T13:29:36.667Z,27.49
2022-08-11T13:32:05.216Z,27.67
2022-08-11T13:34:35.567Z,28.04
2022-08-11T13:37:05.631Z,28.88
2022-08-11T13:39:36.436Z,28.68
2022-08-11T13:42:06.030Z,27.29
2022-08-11T13:44:37.407Z,27.91
2022-08-11T13:47:08.840Z,26.89
2022-08-11T13:49:41.060Z,25.38
2022-08-11T13:52:15.927Z,24.76
2022-08-11T13:54:48.426Z,25.41
2022-08-11T13:58:08.649Z,25.72
2022-08-11T14:00:13.307Z,25.35
2022-08-11T14:02:54.952Z,26.99
2022-08-11T14:05:28.828Z,27.18
2022-08-11T14:08:03.116Z,27.29
2022-08-11T14:10:34.240Z,25.36
2022-08-11T14:13:27.736Z,24.49
2022-08-11T14:16:02.437Z,25.36
2022-08-11T14:18:33.562Z,25.60
2022-08-11T14:21:23.848Z,26.43
2022-08-11T14:24:01.344Z,25.02
2022-08-11T14:26:32.036Z,26.87
2022-08-11T14:29:08.659Z,27.43
2022-08-11T14:32:02.986Z,26.64
2022-08-11T14:34:34.745Z,26.87
2022-08-11T14:37:13.312Z,27.26
2022-08-11T14:39:48.887Z,28.72
2022-08-11T14:42:38.696Z,30.02
2022-08-11T14:45:54.638Z,29.44
2022-08-11T14:48:17.790Z,30.12
2022-08-11T14:50:47.366Z,30.77
2022-08-11T14:53:18.704Z,31.19
2022-08-11T14:56:10.220Z,31.25
2022-08-11T14:58:43.670Z,30.99
2022-08-11T15:01:31.779Z,31.03
2022-08-11T15:04:34.391Z,31.53
2022-08-11T15:06:49.232Z,31.92
2022-08-11T15:09:18.738Z,32.12
2022-08-11T15:12:32.965Z,32.40
2022-08-11T15:15:26.470Z,32.70
2022-08-11T15:17:57.292Z,33.10
2022-08-11T15:20:48.246Z,32.71
2022-08-11T15:23:40.965Z,32.83
2022-08-11T15:26:14.522Z,33.50
2022-08-11T15:29:07.033Z,33.86
2022-08-11T15:31:57.273Z,34.20
2022-08-11T15:34:48.419Z,34.90
2022-08-11T15:37:31.102Z,35.76
2022-08-11T15:41:01.160Z,35.69
2022-08-11T15:43:56.902Z,35.54
2022-08-11T15:46:35.900Z,35.27
2022-08-11T15:49:21.737Z,35.60
2022-08-11T15:52:10.200Z,35.81
2022-08-11T15:54:44.375Z,37.46
2022-08-11T15:57:40.018Z,39.32
2022-08-11T16:00:28.725Z,37.18
2022-08-11T16:03:17.449Z,36.85
2022-08-11T16:05:50.776Z,36.60
2022-08-11T16:08:32.877Z,37.30
2022-08-11T16:11:04.265Z,36.55
2022-08-11T16:13:40.836Z,35.73
2022-08-11T16:16:14.497Z,36.28
2022-08-11T16:18:54.100Z,36.41
2022-08-11T16:21:36.189Z,36.52
2022-08-11T16:27:05.817Z,36.40
2022-08-11T16:27:13.000Z,36.26
2022-08-11T16:29:46.739Z,36.43
2022-08-11T16:32:23.984Z,37.12
2022-08-11T16:35:21.138Z,37.54
2022-08-11T16:38:10.152Z,37.02
2022-08-11T16:40:39.992Z,37.10
2022-08-11T16:43:30.966Z,37.22
2022-08-11T16:46:21.117Z,37.34
2022-08-11T16:48:51.030Z,37.32
2022-08-11T16:51:21.283Z,37.02
2022-08-11T16:54:03.694Z,37.52
2022-08-11T16:56:39.186Z,38.36
2022-08-11T16:59:19.868Z,38.09
2022-08-11T17:01:58.335Z,37.78
2022-08-11T17:05:05.709Z,38.87
2022-08-11T17:07:56.489Z,40.57
2022-08-11T17:10:55.684Z,39.22
2022-08-11T17:13:37.078Z,39.51
2022-08-11T17:16:12.922Z,39.71
2022-08-11T17:18:50.870Z,40.23
2022-08-11T17:21:24.073Z,40.35
2022-08-11T17:23:56.330Z,40.74
2022-08-11T17:26:52.299Z,40.66
2022-08-11T17:29:25.396Z,40.85
2022-08-11T17:32:14.895Z,41.06
2022-08-11T17:35:03.599Z,41.26
2022-08-11T17:37:34.803Z,41.67
2022-08-11T17:40:07.268Z,42.49
2022-08-11T17:42:56.988Z,42.76
2022-08-11T17:45:45.532Z,42.32
2022-08-11T17:48:27.219Z,42.62
2022-08-11T17:51:09.021Z,42.83
2022-08-11T17:54:24.116Z,43.19
2022-08-11T17:57:20.183Z,43.26
2022-08-11T17:59:53.254Z,43.24
2022-08-11T18:02:54.345Z,43.37
2022-08-11T18:05:27.311Z,43.67
2022-08-11T18:08:17.392Z,43.68
2022-08-11T18:11:06.729Z,43.70
2022-08-11T18:13:57.087Z,43.78
2022-08-11T18:16:44.254Z,44.08
2022-08-11T18:19:31.474Z,44.05
2022-08-11T18:22:28.486Z,44.38
2022-08-11T18:25:32.941Z,44.42
2022-08-11T18:28:24.103Z,44.63
2022-08-11T18:31:18.199Z,44.81
2022-08-11T18:34:13.555Z,44.81
2022-08-11T18:37:24.753Z,44.79
2022-08-11T18:40:21.679Z,45.28
2022-08-11T18:43:11.922Z,45.48
2022-08-11T18:46:06.701Z,45.48
2022-08-11T18:49:00.861Z,45.93
2022-08-11T18:51:48.175Z,46.08
2022-08-11T18:54:38.322Z,46.05
2022-08-11T18:57:27.543Z,46.14
2022-08-11T19:00:21.401Z,46.45
2022-08-11T19:03:09.421Z,46.59
2022-08-11T19:06:32.508Z,46.69
2022-08-11T19:09:12.341Z,47.07
2022-08-11T19:11:59.974Z,47.26
2022-08-11T19:14:49.444Z,47.53
2022-08-11T19:17:45.958Z,48.25
2022-08-11T19:20:37.397Z,48.44
2022-08-11T19:23:27.821Z,48.66
2022-08-11T19:26:16.906Z,48.58
2022-08-11T19:29:07.782Z,48.84
2022-08-11T19:31:57.043Z,50.48
2022-08-11T19:34:45.434Z,52.94
2022-08-11T19:37:33.171Z,51.66
2022-08-11T19:40:28.700Z,50.37
2022-08-11T19:43:23.622Z,50.68
2022-08-11T19:46:17.257Z,51.33
2022-08-11T19:49:08.465Z,50.99
2022-08-11T19:51:56.952Z,51.07
2022-08-11T19:54:47.747Z,51.03
2022-08-11T19:57:40.019Z,50.85
2022-08-11T20:00:32.503Z,51.95
2022-08-11T20:03:22.778Z,51.27
2022-08-11T20:06:11.089Z,51.25
2022-08-11T20:09:01.749Z,51.39
2022-08-11T20:11:50.510Z,51.21
2022-08-11T20:14:40.121Z,51.79
2022-08-11T20:17:30.438Z,51.85
2022-08-11T20:20:21.062Z,51.58
2022-08-11T20:23:11.736Z,51.87
2022-08-11T20:26:14.134Z,52.58
2022-08-11T20:29:09.144Z,53.54
2022-08-11T20:31:57.550Z,53.35
2022-08-11T20:34:45.042Z,53.77
2022-08-11T20:37:33.237Z,53.69
2022-08-11T20:40:23.480Z,53.29
2022-08-11T20:44:05.140Z,53.26
2022-08-11T20:46:22.106Z,53.16
2022-08-11T20:49:12.157Z,53.36
2022-08-11T20:52:01.688Z,53.32
2022-08-11T20:54:55.322Z,53.54
2022-08-11T20:58:03.915Z,53.09
2022-08-11T21:00:53.203Z,53.35
2022-08-11T21:06:49.252Z,54.03
2022-08-11T21:09:58.676Z,54.45
2022-08-11T21:12:50.704Z,54.61
2022-08-11T21:15:47.324Z,55.07
2022-08-11T21:18:51.526Z,55.44
2022-08-11T21:21:45.599Z,55.92
2022-08-11T21:24:37.601Z,55.71
2022-08-11T21:27:34.507Z,56.59
2022-08-11T21:30:22.764Z,56.59
2022-08-11T21:33:11.850Z,56.53
2022-08-11T21:35:59.877Z,56.61
2022-08-11T21:38:47.927Z,57.32
2022-08-11T21:41:37.142Z,56.98
2022-08-11T21:44:26.052Z,56.51
2022-08-11T21:47:19.669Z,57.16
2022-08-11T21:50:22.739Z,57.10
2022-08-11T21:53:11.363Z,57.61
2022-08-11T21:55:59.844Z,57.79
2022-08-11T21:58:48.657Z,57.51
2022-08-11T22:01:37.533Z,57.71
2022-08-11T22:04:25.528Z,58.07
2022-08-11T22:07:13.535Z,59.17
2022-08-11T22:10:00.386Z,59.51
2022-08-11T22:13:07.165Z,59.36
2022-08-11T22:15:56.590Z,60.07
2022-08-11T22:18:44.872Z,59.38
2022-08-11T22:21:56.872Z,59.43
2022-08-11T22:24:44.147Z,59.79
2022-08-11T22:27:32.759Z,60.31
2022-08-11T22:30:19.948Z,60.62
2022-08-11T22:33:07.673Z,60.53
2022-08-11T22:35:57.357Z,60.86
2022-08-11T22:38:45.052Z,61.16
2022-08-11T22:41:32.869Z,61.17
2022-08-11T22:44:19.848Z,61.27
2022-08-11T22:47:10.020Z,61.15
2022-08-11T22:49:58.630Z,61.24
2022-08-11T22:52:48.137Z,61.81
2022-08-11T22:55:36.540Z,61.56
2022-08-11T22:58:25.768Z,61.34
2022-08-11T23:01:13.792Z,62.42
2022-08-11T23:04:01.619Z,61.71
2022-08-11T23:06:48.979Z,61.95
2022-08-11T23:09:36.733Z,62.92
2022-08-11T23:12:24.742Z,62.39
2022-08-11T23:15:13.282Z,62.55
2022-08-11T23:18:00.948Z,62.26
2022-08-11T23:20:53.003Z,62.30
2022-08-11T23:23:42.792Z,63.12
2022-08-11T23:26:30.675Z,62.63
2022-08-11T23:29:18.975Z,63.06
2022-08-11T23:32:08.266Z,63.88
2022-08-11T23:35:04.955Z,64.15
2022-08-11T23:38:06.931Z,63.85
2022-08-11T23:40:54.740Z,63.57
2022-08-11T23:43:43.408Z,64.14
2022-08-11T23:46:30.696Z,64.05
2022-08-11T23:49:24.602Z,63.80
2022-08-11T23:52:12.429Z,64.35
2022-08-11T23:55:00.281Z,64.55
2022-08-11T23:57:48.830Z,64.77
